Lake Placid, NY (12946)

5:14 PM EST on February 07, 2016 (GMT -0500)
Intervale Lowlands | | Change Station
CLOSE
Current Station
Personal Weather Station
Location: Lake Placid, NY
Elevation: 1680 ft
Nearby Weather Stations

Elev 1680 ft 44.27 °N, 73.95 °W | Updated 12 seconds ago

Mostly Cloudy
Mostly Cloudy
24.8 °F
Feels Like 25 °F
N
2.0
Wind Variable Wind from NE
Gusts 5.0 mph

Today
High -- | Low -- °F
--% Chance of Precip.
Yesterday
High -- | Low -- °F
Precip. -- in
Pressure 30.07 in
Visibility 10.0 miles
Clouds Scattered Clouds 12000 ft
Windchill 25 °F
Dew Point 24 °F
Humidity 93%
Rainfall 0.00 in
Snow Depth Not available.
7:07 AM 5:13 PM
Waning Crescent, 1% visible
METAR KSLK 072151Z AUTO 07008KT 10SM SCT120 M03/M06 A3000 RMK AO2 SLP182 T10331061 $
Pressure 30.07 in
Visibility 10.0 miles
Clouds Scattered Clouds 12000 ft
Windchill 25 °F
Dew Point 24 °F
Humidity 93%
Rainfall 0.00 in
Snow Depth Not available.
7:07 AM 5:13 PM
Waning Crescent, 1% visible
METAR KSLK 072151Z AUTO 07008KT 10SM SCT120 M03/M06 A3000 RMK AO2 SLP182 T10331061 $

10-Day Weather Forecast

Almanac

Astronomy

Feb. 07, 2016 Rise Set
Actual Time
Civil Twilight
Nautical Twilight
Astronomical Twilight
Moon
Length of Visible Light
Length of Day
Tomorrow will be .
, % of the Moon is Illuminated

Today's Extremes

State Highs State Lows

Community

WunderPhotos

Upload Photos

1,891,309 photos uploaded!

WunderBlog® & News

Nearby

Air Quality

  Air Quality AQ Index Pollutant
Not available.

Snow Depth

Station Depth Elevation

Earthquake Activity

City Distance Mag. Time & Date
Minimum magnitude displayed is 2.5.

Coastal Water Temperatures

Place Temperature

Stations

Nearby Weather Stations

Station Location Temp. Windchill Dew Point Humidity Wind Precip. Elev Updated Type
                   

Watches & Warnings

There are currently no watches in effect.